sensor_id;sensor_type;location;lat;lon;timestamp;P1;durP1;ratioP1;P2;durP2;ratioP2
12177;SDS011;6152;48.728;9.256;2022-09-03T00:01:39;0.95;;;0.70;;
12177;SDS011;6152;48.728;9.256;2022-09-03T00:07:14;0.57;;;0.57;;
12177;SDS011;6152;48.728;9.256;2022-09-03T00:09:48;0.70;;;0.70;;
12177;SDS011;6152;48.728;9.256;2022-09-03T00:12:21;0.68;;;0.68;;
12177;SDS011;6152;48.728;9.256;2022-09-03T00:14:58;1.05;;;0.95;;
12177;SDS011;6152;48.728;9.256;2022-09-03T00:17:37;1.55;;;0.73;;
12177;SDS011;6152;48.728;9.256;2022-09-03T00:20:12;0.77;;;0.77;;
12177;SDS011;6152;48.728;9.256;2022-09-03T00:22:52;0.75;;;0.75;;
12177;SDS011;6152;48.728;9.256;2022-09-03T00:25:43;0.80;;;0.80;;
12177;SDS011;6152;48.728;9.256;2022-09-03T00:28:25;3.15;;;0.70;;
12177;SDS011;6152;48.728;9.256;2022-09-03T00:31:17;1.27;;;0.70;;
12177;SDS011;6152;48.728;9.256;2022-09-03T00:33:51;0.80;;;0.80;;
12177;SDS011;6152;48.728;9.256;2022-09-03T00:36:47;1.45;;;0.65;;
12177;SDS011;6152;48.728;9.256;2022-09-03T00:39:18;1.50;;;0.63;;
12177;SDS011;6152;48.728;9.256;2022-09-03T00:47:13;0.95;;;0.65;;
12177;SDS011;6152;48.728;9.256;2022-09-03T01:01:21;1.08;;;0.60;;
12177;SDS011;6152;48.728;9.256;2022-09-03T01:06:57;0.65;;;0.65;;
12177;SDS011;6152;48.728;9.256;2022-09-03T01:18:16;0.77;;;0.60;;
12177;SDS011;6152;48.728;9.256;2022-09-03T01:26:27;3.05;;;0.77;;
12177;SDS011;6152;48.728;9.256;2022-09-03T01:29:10;2.78;;;0.82;;
12177;SDS011;6152;48.728;9.256;2022-09-03T01:31:43;0.60;;;0.60;;
12177;SDS011;6152;48.728;9.256;2022-09-03T01:34:23;0.75;;;0.75;;
12177;SDS011;6152;48.728;9.256;2022-09-03T01:37:18;2.08;;;0.80;;
12177;SDS011;6152;48.728;9.256;2022-09-03T01:39:53;2.00;;;1.02;;
12177;SDS011;6152;48.728;9.256;2022-09-03T01:45:18;0.85;;;0.80;;
12177;SDS011;6152;48.728;9.256;2022-09-03T01:47:54;1.35;;;0.68;;
12177;SDS011;6152;48.728;9.256;2022-09-03T01:50:43;0.98;;;0.88;;
12177;SDS011;6152;48.728;9.256;2022-09-03T01:53:18;0.73;;;0.73;;
12177;SDS011;6152;48.728;9.256;2022-09-03T01:56:18;0.70;;;0.70;;
12177;SDS011;6152;48.728;9.256;2022-09-03T01:59:19;0.82;;;0.82;;
12177;SDS011;6152;48.728;9.256;2022-09-03T02:02:19;0.90;;;0.90;;
12177;SDS011;6152;48.728;9.256;2022-09-03T02:07:37;1.10;;;1.00;;
12177;SDS011;6152;48.728;9.256;2022-09-03T02:10:07;1.33;;;1.02;;
12177;SDS011;6152;48.728;9.256;2022-09-03T02:12:39;0.80;;;0.80;;
12177;SDS011;6152;48.728;9.256;2022-09-03T02:15:11;0.95;;;0.90;;
12177;SDS011;6152;48.728;9.256;2022-09-03T02:17:40;1.50;;;0.90;;
12177;SDS011;6152;48.728;9.256;2022-09-03T02:20:11;2.13;;;1.10;;
12177;SDS011;6152;48.728;9.256;2022-09-03T02:22:45;0.95;;;0.90;;
12177;SDS011;6152;48.728;9.256;2022-09-03T02:25:12;0.90;;;0.90;;
12177;SDS011;6152;48.728;9.256;2022-09-03T02:27:39;1.15;;;1.00;;
12177;SDS011;6152;48.728;9.256;2022-09-03T02:30:05;1.80;;;0.77;;
12177;SDS011;6152;48.728;9.256;2022-09-03T02:32:32;1.77;;;1.20;;
12177;SDS011;6152;48.728;9.256;2022-09-03T02:34:59;2.15;;;1.00;;
12177;SDS011;6152;48.728;9.256;2022-09-03T02:37:25;2.53;;;1.08;;
12177;SDS011;6152;48.728;9.256;2022-09-03T02:39:51;2.33;;;1.40;;
12177;SDS011;6152;48.728;9.256;2022-09-03T02:42:17;1.38;;;1.27;;
12177;SDS011;6152;48.728;9.256;2022-09-03T02:44:46;2.20;;;0.85;;
12177;SDS011;6152;48.728;9.256;2022-09-03T02:47:16;1.23;;;0.90;;
12177;SDS011;6152;48.728;9.256;2022-09-03T02:49:45;1.08;;;1.00;;
12177;SDS011;6152;48.728;9.256;2022-09-03T02:52:12;1.85;;;1.25;;
12177;SDS011;6152;48.728;9.256;2022-09-03T02:54:39;1.75;;;1.20;;
12177;SDS011;6152;48.728;9.256;2022-09-03T02:57:09;0.70;;;0.70;;
12177;SDS011;6152;48.728;9.256;2022-09-03T02:59:37;1.65;;;1.48;;
12177;SDS011;6152;48.728;9.256;2022-09-03T03:02:04;1.08;;;0.90;;
12177;SDS011;6152;48.728;9.256;2022-09-03T03:04:30;1.45;;;0.75;;
12177;SDS011;6152;48.728;9.256;2022-09-03T03:06:57;1.65;;;1.08;;
12177;SDS011;6152;48.728;9.256;2022-09-03T03:09:23;1.20;;;1.20;;
12177;SDS011;6152;48.728;9.256;2022-09-03T03:11:50;1.20;;;1.10;;
12177;SDS011;6152;48.728;9.256;2022-09-03T03:14:17;1.90;;;1.30;;
12177;SDS011;6152;48.728;9.256;2022-09-03T03:16:43;1.40;;;1.30;;
12177;SDS011;6152;48.728;9.256;2022-09-03T03:19:10;1.75;;;1.17;;
12177;SDS011;6152;48.728;9.256;2022-09-03T03:21:36;1.38;;;1.20;;
12177;SDS011;6152;48.728;9.256;2022-09-03T03:24:02;1.13;;;1.00;;
12177;SDS011;6152;48.728;9.256;2022-09-03T03:26:28;1.08;;;1.00;;
12177;SDS011;6152;48.728;9.256;2022-09-03T03:28:55;1.60;;;1.20;;
12177;SDS011;6152;48.728;9.256;2022-09-03T03:31:23;1.83;;;0.90;;
12177;SDS011;6152;48.728;9.256;2022-09-03T03:33:50;2.60;;;1.33;;
12177;SDS011;6152;48.728;9.256;2022-09-03T03:36:17;1.52;;;1.42;;
12177;SDS011;6152;48.728;9.256;2022-09-03T03:38:45;2.40;;;1.35;;
12177;SDS011;6152;48.728;9.256;2022-09-03T03:41:18;2.25;;;1.20;;
12177;SDS011;6152;48.728;9.256;2022-09-03T03:43:46;1.30;;;1.20;;
12177;SDS011;6152;48.728;9.256;2022-09-03T03:46:16;3.22;;;1.30;;
12177;SDS011;6152;48.728;9.256;2022-09-03T03:48:42;1.45;;;1.35;;
12177;SDS011;6152;48.728;9.256;2022-09-03T03:51:08;1.40;;;1.30;;
12177;SDS011;6152;48.728;9.256;2022-09-03T03:53:35;2.72;;;1.50;;
12177;SDS011;6152;48.728;9.256;2022-09-03T03:56:03;1.45;;;1.35;;
12177;SDS011;6152;48.728;9.256;2022-09-03T03:58:32;3.00;;;1.35;;
12177;SDS011;6152;48.728;9.256;2022-09-03T04:01:05;1.25;;;1.10;;
12177;SDS011;6152;48.728;9.256;2022-09-03T04:03:36;2.25;;;1.42;;
12177;SDS011;6152;48.728;9.256;2022-09-03T04:06:05;1.20;;;1.10;;
12177;SDS011;6152;48.728;9.256;2022-09-03T04:08:35;1.80;;;1.33;;
12177;SDS011;6152;48.728;9.256;2022-09-03T04:11:07;1.40;;;1.40;;
12177;SDS011;6152;48.728;9.256;2022-09-03T04:13:35;1.05;;;1.05;;
12177;SDS011;6152;48.728;9.256;2022-09-03T04:16:04;1.58;;;1.48;;
12177;SDS011;6152;48.728;9.256;2022-09-03T04:18:32;1.60;;;1.50;;
12177;SDS011;6152;48.728;9.256;2022-09-03T04:21:09;2.00;;;1.30;;
12177;SDS011;6152;48.728;9.256;2022-09-03T04:23:40;1.20;;;1.10;;
12177;SDS011;6152;48.728;9.256;2022-09-03T04:26:09;2.10;;;1.40;;
12177;SDS011;6152;48.728;9.256;2022-09-03T04:28:37;1.58;;;1.45;;
12177;SDS011;6152;48.728;9.256;2022-09-03T04:31:05;1.65;;;1.25;;
12177;SDS011;6152;48.728;9.256;2022-09-03T04:33:33;1.20;;;1.15;;
12177;SDS011;6152;48.728;9.256;2022-09-03T04:38:34;2.42;;;1.30;;
12177;SDS011;6152;48.728;9.256;2022-09-03T04:41:03;1.58;;;1.27;;
12177;SDS011;6152;48.728;9.256;2022-09-03T04:43:31;1.38;;;1.27;;
12177;SDS011;6152;48.728;9.256;2022-09-03T04:45:58;1.40;;;1.30;;
12177;SDS011;6152;48.728;9.256;2022-09-03T04:48:25;2.20;;;1.77;;
12177;SDS011;6152;48.728;9.256;2022-09-03T04:50:53;2.65;;;1.23;;
12177;SDS011;6152;48.728;9.256;2022-09-03T04:53:20;1.48;;;1.20;;
12177;SDS011;6152;48.728;9.256;2022-09-03T04:55:46;2.13;;;1.30;;
12177;SDS011;6152;48.728;9.256;2022-09-03T04:58:13;1.55;;;1.42;;
12177;SDS011;6152;48.728;9.256;2022-09-03T05:00:39;1.50;;;1.40;;
12177;SDS011;6152;48.728;9.256;2022-09-03T05:03:05;1.15;;;1.15;;
12177;SDS011;6152;48.728;9.256;2022-09-03T05:05:31;1.95;;;1.50;;
12177;SDS011;6152;48.728;9.256;2022-09-03T05:07:58;2.15;;;1.45;;
12177;SDS011;6152;48.728;9.256;2022-09-03T05:10:28;1.90;;;1.20;;
12177;SDS011;6152;48.728;9.256;2022-09-03T05:13:02;1.45;;;1.38;;
12177;SDS011;6152;48.728;9.256;2022-09-03T05:15:30;1.52;;;1.45;;
12177;SDS011;6152;48.728;9.256;2022-09-03T05:18:00;1.80;;;1.60;;
12177;SDS011;6152;48.728;9.256;2022-09-03T05:20:27;1.60;;;1.50;;
12177;SDS011;6152;48.728;9.256;2022-09-03T05:23:01;2.35;;;1.58;;
12177;SDS011;6152;48.728;9.256;2022-09-03T05:25:28;1.60;;;1.48;;
12177;SDS011;6152;48.728;9.256;2022-09-03T05:27:57;2.65;;;1.60;;
12177;SDS011;6152;48.728;9.256;2022-09-03T05:30:24;1.98;;;1.88;;
12177;SDS011;6152;48.728;9.256;2022-09-03T05:32:50;1.73;;;1.63;;
12177;SDS011;6152;48.728;9.256;2022-09-03T05:35:17;1.92;;;1.83;;
12177;SDS011;6152;48.728;9.256;2022-09-03T05:37:43;1.77;;;1.40;;
12177;SDS011;6152;48.728;9.256;2022-09-03T05:40:09;2.13;;;1.42;;
12177;SDS011;6152;48.728;9.256;2022-09-03T05:42:36;1.63;;;1.50;;
12177;SDS011;6152;48.728;9.256;2022-09-03T05:45:07;1.90;;;1.67;;
12177;SDS011;6152;48.728;9.256;2022-09-03T05:47:35;1.55;;;1.45;;
12177;SDS011;6152;48.728;9.256;2022-09-03T05:50:03;1.80;;;1.70;;
12177;SDS011;6152;48.728;9.256;2022-09-03T05:52:31;1.50;;;1.40;;
12177;SDS011;6152;48.728;9.256;2022-09-03T05:54:57;2.97;;;1.85;;
12177;SDS011;6152;48.728;9.256;2022-09-03T05:57:23;2.00;;;1.60;;
12177;SDS011;6152;48.728;9.256;2022-09-03T05:59:49;1.92;;;1.42;;
12177;SDS011;6152;48.728;9.256;2022-09-03T06:02:15;2.50;;;1.50;;
12177;SDS011;6152;48.728;9.256;2022-09-03T06:04:43;2.15;;;1.73;;
12177;SDS011;6152;48.728;9.256;2022-09-03T06:07:10;2.67;;;1.80;;
12177;SDS011;6152;48.728;9.256;2022-09-03T06:09:36;2.65;;;1.63;;
12177;SDS011;6152;48.728;9.256;2022-09-03T06:12:03;1.60;;;1.50;;
12177;SDS011;6152;48.728;9.256;2022-09-03T06:14:29;1.83;;;1.48;;
12177;SDS011;6152;48.728;9.256;2022-09-03T06:16:55;2.22;;;1.40;;
12177;SDS011;6152;48.728;9.256;2022-09-03T06:19:21;1.80;;;1.70;;
12177;SDS011;6152;48.728;9.256;2022-09-03T06:21:47;2.30;;;1.50;;
12177;SDS011;6152;48.728;9.256;2022-09-03T06:24:17;4.60;;;1.90;;
12177;SDS011;6152;48.728;9.256;2022-09-03T06:26:47;2.30;;;2.00;;
12177;SDS011;6152;48.728;9.256;2022-09-03T06:29:13;1.92;;;1.60;;
12177;SDS011;6152;48.728;9.256;2022-09-03T06:31:39;1.60;;;1.50;;
12177;SDS011;6152;48.728;9.256;2022-09-03T06:34:06;3.10;;;2.00;;
12177;SDS011;6152;48.728;9.256;2022-09-03T06:36:32;2.42;;;1.55;;
12177;SDS011;6152;48.728;9.256;2022-09-03T06:38:58;2.25;;;1.88;;
12177;SDS011;6152;48.728;9.256;2022-09-03T06:41:26;3.97;;;2.15;;
12177;SDS011;6152;48.728;9.256;2022-09-03T06:43:58;1.77;;;1.67;;
12177;SDS011;6152;48.728;9.256;2022-09-03T06:46:27;3.45;;;2.00;;
12177;SDS011;6152;48.728;9.256;2022-09-03T06:49:02;2.47;;;2.08;;
12177;SDS011;6152;48.728;9.256;2022-09-03T06:51:29;3.67;;;2.00;;
12177;SDS011;6152;48.728;9.256;2022-09-03T06:54:07;3.20;;;2.90;;
12177;SDS011;6152;48.728;9.256;2022-09-03T06:56:35;2.60;;;1.75;;
12177;SDS011;6152;48.728;9.256;2022-09-03T06:59:03;2.85;;;1.88;;
12177;SDS011;6152;48.728;9.256;2022-09-03T07:01:32;1.70;;;1.60;;
12177;SDS011;6152;48.728;9.256;2022-09-03T07:03:59;1.70;;;1.60;;
12177;SDS011;6152;48.728;9.256;2022-09-03T07:06:29;1.88;;;1.77;;
12177;SDS011;6152;48.728;9.256;2022-09-03T07:09:01;3.13;;;1.90;;
12177;SDS011;6152;48.728;9.256;2022-09-03T07:11:28;2.25;;;2.00;;
12177;SDS011;6152;48.728;9.256;2022-09-03T07:13:55;2.50;;;2.03;;
12177;SDS011;6152;48.728;9.256;2022-09-03T07:16:31;3.28;;;1.45;;
12177;SDS011;6152;48.728;9.256;2022-09-03T07:18:59;1.80;;;1.70;;
12177;SDS011;6152;48.728;9.256;2022-09-03T07:21:27;2.15;;;1.80;;
12177;SDS011;6152;48.728;9.256;2022-09-03T07:23:56;1.73;;;1.60;;
12177;SDS011;6152;48.728;9.256;2022-09-03T07:26:23;1.85;;;1.75;;
12177;SDS011;6152;48.728;9.256;2022-09-03T07:28:51;2.40;;;2.08;;
12177;SDS011;6152;48.728;9.256;2022-09-03T07:31:25;3.58;;;2.17;;
12177;SDS011;6152;48.728;9.256;2022-09-03T07:33:53;2.38;;;2.05;;
12177;SDS011;6152;48.728;9.256;2022-09-03T07:36:20;3.13;;;2.13;;
12177;SDS011;6152;48.728;9.256;2022-09-03T07:38:47;2.28;;;2.10;;
12177;SDS011;6152;48.728;9.256;2022-09-03T07:41:14;1.95;;;1.85;;
12177;SDS011;6152;48.728;9.256;2022-09-03T07:43:42;2.97;;;2.67;;
12177;SDS011;6152;48.728;9.256;2022-09-03T07:46:14;2.35;;;2.15;;
12177;SDS011;6152;48.728;9.256;2022-09-03T07:48:50;2.90;;;2.45;;
12177;SDS011;6152;48.728;9.256;2022-09-03T07:51:18;2.60;;;2.08;;
12177;SDS011;6152;48.728;9.256;2022-09-03T07:53:46;1.90;;;1.70;;
12177;SDS011;6152;48.728;9.256;2022-09-03T07:56:13;2.20;;;2.08;;
12177;SDS011;6152;48.728;9.256;2022-09-03T07:58:39;2.10;;;1.90;;
12177;SDS011;6152;48.728;9.256;2022-09-03T08:01:07;2.38;;;2.20;;
12177;SDS011;6152;48.728;9.256;2022-09-03T08:03:38;2.00;;;1.75;;
12177;SDS011;6152;48.728;9.256;2022-09-03T08:06:08;2.03;;;1.90;;
12177;SDS011;6152;48.728;9.256;2022-09-03T08:08:35;1.90;;;1.80;;
12177;SDS011;6152;48.728;9.256;2022-09-03T08:11:12;2.00;;;1.90;;
12177;SDS011;6152;48.728;9.256;2022-09-03T08:13:44;3.20;;;2.15;;
12177;SDS011;6152;48.728;9.256;2022-09-03T08:16:13;2.40;;;2.20;;
12177;SDS011;6152;48.728;9.256;2022-09-03T08:18:40;2.40;;;2.20;;
12177;SDS011;6152;48.728;9.256;2022-09-03T08:21:08;2.65;;;2.00;;
12177;SDS011;6152;48.728;9.256;2022-09-03T08:23:39;2.20;;;2.10;;
12177;SDS011;6152;48.728;9.256;2022-09-03T08:26:06;2.08;;;1.98;;
12177;SDS011;6152;48.728;9.256;2022-09-03T08:28:34;3.70;;;2.10;;
12177;SDS011;6152;48.728;9.256;2022-09-03T08:31:11;2.58;;;2.00;;
12177;SDS011;6152;48.728;9.256;2022-09-03T08:33:39;2.17;;;2.08;;
12177;SDS011;6152;48.728;9.256;2022-09-03T08:36:12;3.15;;;2.25;;
12177;SDS011;6152;48.728;9.256;2022-09-03T08:38:41;2.13;;;2.03;;
12177;SDS011;6152;48.728;9.256;2022-09-03T08:41:16;2.53;;;2.33;;
12177;SDS011;6152;48.728;9.256;2022-09-03T08:49:42;2.65;;;2.22;;
12177;SDS011;6152;48.728;9.256;2022-09-03T08:55:13;3.50;;;2.65;;
12177;SDS011;6152;48.728;9.256;2022-09-03T08:58:02;2.22;;;2.03;;
12177;SDS011;6152;48.728;9.256;2022-09-03T09:03:40;2.55;;;2.40;;
12177;SDS011;6152;48.728;9.256;2022-09-03T09:09:19;2.30;;;2.00;;
12177;SDS011;6152;48.728;9.256;2022-09-03T09:12:19;2.63;;;2.20;;
12177;SDS011;6152;48.728;9.256;2022-09-03T09:20:25;2.85;;;2.10;;
12177;SDS011;6152;48.728;9.256;2022-09-03T09:23:13;2.20;;;2.10;;
12177;SDS011;6152;48.728;9.256;2022-09-03T09:26:00;2.65;;;2.30;;
12177;SDS011;6152;48.728;9.256;2022-09-03T09:28:34;3.20;;;2.40;;
12177;SDS011;6152;48.728;9.256;2022-09-03T09:31:02;2.15;;;1.98;;
12177;SDS011;6152;48.728;9.256;2022-09-03T09:33:31;2.20;;;2.10;;
12177;SDS011;6152;48.728;9.256;2022-09-03T09:35:59;3.72;;;1.75;;
12177;SDS011;6152;48.728;9.256;2022-09-03T09:38:29;1.92;;;1.83;;
12177;SDS011;6152;48.728;9.256;2022-09-03T09:41:07;1.85;;;1.75;;
12177;SDS011;6152;48.728;9.256;2022-09-03T09:43:34;2.60;;;2.20;;
12177;SDS011;6152;48.728;9.256;2022-09-03T09:46:11;3.05;;;1.88;;
12177;SDS011;6152;48.728;9.256;2022-09-03T09:48:55;2.38;;;1.80;;
12177;SDS011;6152;48.728;9.256;2022-09-03T09:51:23;1.55;;;1.45;;
12177;SDS011;6152;48.728;9.256;2022-09-03T09:56:26;1.83;;;1.73;;
12177;SDS011;6152;48.728;9.256;2022-09-03T09:59:03;3.17;;;1.70;;
12177;SDS011;6152;48.728;9.256;2022-09-03T10:01:37;2.13;;;1.75;;
12177;SDS011;6152;48.728;9.256;2022-09-03T10:04:09;1.73;;;1.63;;
12177;SDS011;6152;48.728;9.256;2022-09-03T10:06:36;2.03;;;1.92;;
12177;SDS011;6152;48.728;9.256;2022-09-03T10:09:20;2.00;;;1.90;;
12177;SDS011;6152;48.728;9.256;2022-09-03T10:14:31;2.55;;;2.40;;
12177;SDS011;6152;48.728;9.256;2022-09-03T10:20:25;2.33;;;2.15;;
12177;SDS011;6152;48.728;9.256;2022-09-03T10:28:26;2.63;;;2.53;;
12177;SDS011;6152;48.728;9.256;2022-09-03T10:45:02;4.35;;;2.75;;
12177;SDS011;6152;48.728;9.256;2022-09-03T10:48:00;3.22;;;2.90;;
12177;SDS011;6152;48.728;9.256;2022-09-03T10:50:46;2.88;;;2.67;;
12177;SDS011;6152;48.728;9.256;2022-09-03T10:56:39;4.70;;;2.85;;
12177;SDS011;6152;48.728;9.256;2022-09-03T11:07:16;2.63;;;2.42;;
12177;SDS011;6152;48.728;9.256;2022-09-03T11:12:37;2.83;;;2.60;;
12177;SDS011;6152;48.728;9.256;2022-09-03T11:15:28;2.92;;;2.72;;
12177;SDS011;6152;48.728;9.256;2022-09-03T11:18:00;3.10;;;2.60;;
12177;SDS011;6152;48.728;9.256;2022-09-03T11:20:35;3.67;;;2.70;;
12177;SDS011;6152;48.728;9.256;2022-09-03T11:23:03;2.90;;;2.70;;
12177;SDS011;6152;48.728;9.256;2022-09-03T11:25:34;2.50;;;2.30;;
12177;SDS011;6152;48.728;9.256;2022-09-03T11:33:27;2.47;;;2.38;;
12177;SDS011;6152;48.728;9.256;2022-09-03T11:35:57;2.45;;;2.25;;
12177;SDS011;6152;48.728;9.256;2022-09-03T11:38:26;3.47;;;2.70;;
12177;SDS011;6152;48.728;9.256;2022-09-03T11:41:12;3.15;;;2.95;;
12177;SDS011;6152;48.728;9.256;2022-09-03T11:43:48;2.75;;;2.55;;
12177;SDS011;6152;48.728;9.256;2022-09-03T11:48:50;3.13;;;2.80;;
12177;SDS011;6152;48.728;9.256;2022-09-03T11:54:04;3.60;;;2.47;;
12177;SDS011;6152;48.728;9.256;2022-09-03T11:56:37;5.20;;;2.90;;
12177;SDS011;6152;48.728;9.256;2022-09-03T12:01:36;3.13;;;2.65;;
12177;SDS011;6152;48.728;9.256;2022-09-03T12:04:04;3.40;;;3.10;;
12177;SDS011;6152;48.728;9.256;2022-09-03T12:09:11;3.40;;;3.10;;
12177;SDS011;6152;48.728;9.256;2022-09-03T12:14:54;4.05;;;2.60;;
12177;SDS011;6152;48.728;9.256;2022-09-03T12:20:42;5.00;;;3.17;;
12177;SDS011;6152;48.728;9.256;2022-09-03T12:23:09;1.90;;;1.67;;
12177;SDS011;6152;48.728;9.256;2022-09-03T12:25:45;1.45;;;0.80;;
12177;SDS011;6152;48.728;9.256;2022-09-03T12:28:12;2.08;;;0.60;;
12177;SDS011;6152;48.728;9.256;2022-09-03T12:30:45;1.60;;;0.77;;
12177;SDS011;6152;48.728;9.256;2022-09-03T12:33:15;1.83;;;0.52;;
12177;SDS011;6152;48.728;9.256;2022-09-03T12:35:42;3.05;;;0.88;;
12177;SDS011;6152;48.728;9.256;2022-09-03T12:38:11;1.27;;;0.80;;
12177;SDS011;6152;48.728;9.256;2022-09-03T12:40:40;1.35;;;0.50;;
12177;SDS011;6152;48.728;9.256;2022-09-03T12:43:14;2.28;;;0.77;;
12177;SDS011;6152;48.728;9.256;2022-09-03T12:45:48;3.85;;;0.50;;
12177;SDS011;6152;48.728;9.256;2022-09-03T12:48:18;2.28;;;0.57;;
12177;SDS011;6152;48.728;9.256;2022-09-03T12:50:46;1.50;;;0.57;;
12177;SDS011;6152;48.728;9.256;2022-09-03T12:53:15;4.50;;;0.50;;
12177;SDS011;6152;48.728;9.256;2022-09-03T12:55:49;1.15;;;0.60;;
12177;SDS011;6152;48.728;9.256;2022-09-03T13:03:25;5.03;;;0.90;;
12177;SDS011;6152;48.728;9.256;2022-09-03T13:05:58;1.05;;;0.60;;
12177;SDS011;6152;48.728;9.256;2022-09-03T13:08:37;4.68;;;0.60;;
12177;SDS011;6152;48.728;9.256;2022-09-03T13:11:09;1.75;;;0.80;;
12177;SDS011;6152;48.728;9.256;2022-09-03T13:13:47;1.65;;;0.88;;
12177;SDS011;6152;48.728;9.256;2022-09-03T13:19:35;2.25;;;0.70;;
12177;SDS011;6152;48.728;9.256;2022-09-03T13:22:29;0.60;;;0.60;;
12177;SDS011;6152;48.728;9.256;2022-09-03T13:28:13;1.92;;;0.90;;
12177;SDS011;6152;48.728;9.256;2022-09-03T13:34:02;1.23;;;0.70;;
12177;SDS011;6152;48.728;9.256;2022-09-03T13:37:19;2.05;;;0.98;;
12177;SDS011;6152;48.728;9.256;2022-09-03T13:39:48;2.25;;;0.70;;
12177;SDS011;6152;48.728;9.256;2022-09-03T13:42:25;5.97;;;1.13;;
12177;SDS011;6152;48.728;9.256;2022-09-03T13:47:55;1.65;;;1.52;;
12177;SDS011;6152;48.728;9.256;2022-09-03T13:50:47;3.47;;;1.50;;
12177;SDS011;6152;48.728;9.256;2022-09-03T13:57:04;3.65;;;1.60;;
12177;SDS011;6152;48.728;9.256;2022-09-03T13:59:13;1.75;;;1.10;;
12177;SDS011;6152;48.728;9.256;2022-09-03T14:04:48;0.85;;;0.80;;
12177;SDS011;6152;48.728;9.256;2022-09-03T14:07:41;1.90;;;0.70;;
12177;SDS011;6152;48.728;9.256;2022-09-03T14:16:24;2.45;;;0.90;;
12177;SDS011;6152;48.728;9.256;2022-09-03T14:19:11;2.05;;;0.90;;
12177;SDS011;6152;48.728;9.256;2022-09-03T14:21:55;1.13;;;0.77;;
12177;SDS011;6152;48.728;9.256;2022-09-03T14:24:33;1.23;;;0.80;;
12177;SDS011;6152;48.728;9.256;2022-09-03T14:27:05;2.55;;;0.80;;
12177;SDS011;6152;48.728;9.256;2022-09-03T14:29:32;1.55;;;0.75;;
12177;SDS011;6152;48.728;9.256;2022-09-03T14:40:50;1.85;;;0.60;;
12177;SDS011;6152;48.728;9.256;2022-09-03T14:43:32;1.05;;;0.70;;
12177;SDS011;6152;48.728;9.256;2022-09-03T14:48:47;1.08;;;0.70;;
12177;SDS011;6152;48.728;9.256;2022-09-03T14:57:33;1.95;;;0.30;;
12177;SDS011;6152;48.728;9.256;2022-09-03T15:03:26;2.08;;;0.50;;
12177;SDS011;6152;48.728;9.256;2022-09-03T15:11:51;0.70;;;0.50;;
12177;SDS011;6152;48.728;9.256;2022-09-03T15:32:09;0.50;;;0.35;;
12177;SDS011;6152;48.728;9.256;2022-09-03T15:37:38;0.52;;;0.45;;
12177;SDS011;6152;48.728;9.256;2022-09-03T15:42:45;2.03;;;0.65;;
12177;SDS011;6152;48.728;9.256;2022-09-03T15:45:28;0.50;;;0.50;;
12177;SDS011;6152;48.728;9.256;2022-09-03T15:48:08;0.68;;;0.47;;
12177;SDS011;6152;48.728;9.256;2022-09-03T15:53:28;0.55;;;0.50;;
12177;SDS011;6152;48.728;9.256;2022-09-03T15:56:18;1.50;;;0.57;;
12177;SDS011;6152;48.728;9.256;2022-09-03T15:59:15;0.75;;;0.52;;
12177;SDS011;6152;48.728;9.256;2022-09-03T16:12:35;1.02;;;0.70;;
12177;SDS011;6152;48.728;9.256;2022-09-03T16:15:26;0.68;;;0.60;;
12177;SDS011;6152;48.728;9.256;2022-09-03T16:24:02;0.50;;;0.50;;
12177;SDS011;6152;48.728;9.256;2022-09-03T16:26:51;0.60;;;0.50;;
12177;SDS011;6152;48.728;9.256;2022-09-03T16:29:28;0.93;;;0.80;;
12177;SDS011;6152;48.728;9.256;2022-09-03T16:42:57;1.33;;;1.23;;
12177;SDS011;6152;48.728;9.256;2022-09-03T16:48:38;1.67;;;0.68;;
12177;SDS011;6152;48.728;9.256;2022-09-03T16:51:27;1.10;;;0.60;;
12177;SDS011;6152;48.728;9.256;2022-09-03T16:54:16;2.85;;;0.80;;
12177;SDS011;6152;48.728;9.256;2022-09-03T17:11:02;1.00;;;1.00;;
12177;SDS011;6152;48.728;9.256;2022-09-03T17:14:31;2.03;;;1.00;;
12177;SDS011;6152;48.728;9.256;2022-09-03T17:17:08;1.00;;;0.90;;
12177;SDS011;6152;48.728;9.256;2022-09-03T17:19:49;1.00;;;0.88;;
12177;SDS011;6152;48.728;9.256;2022-09-03T17:25:19;1.17;;;1.10;;
12177;SDS011;6152;48.728;9.256;2022-09-03T17:31:23;0.77;;;0.77;;
12177;SDS011;6152;48.728;9.256;2022-09-03T17:34:09;0.77;;;0.77;;
12177;SDS011;6152;48.728;9.256;2022-09-03T17:42:17;1.05;;;1.00;;
12177;SDS011;6152;48.728;9.256;2022-09-03T17:53:18;1.98;;;1.25;;
12177;SDS011;6152;48.728;9.256;2022-09-03T17:56:01;1.60;;;1.00;;
12177;SDS011;6152;48.728;9.256;2022-09-03T17:59:10;1.42;;;1.33;;
12177;SDS011;6152;48.728;9.256;2022-09-03T18:02:11;1.45;;;1.05;;
12177;SDS011;6152;48.728;9.256;2022-09-03T18:04:48;1.50;;;1.40;;
12177;SDS011;6152;48.728;9.256;2022-09-03T18:07:25;2.35;;;1.38;;
12177;SDS011;6152;48.728;9.256;2022-09-03T18:15:51;3.58;;;1.60;;
12177;SDS011;6152;48.728;9.256;2022-09-03T18:18:31;1.45;;;1.15;;
12177;SDS011;6152;48.728;9.256;2022-09-03T18:21:02;1.48;;;1.30;;
12177;SDS011;6152;48.728;9.256;2022-09-03T18:27:00;1.98;;;1.45;;
12177;SDS011;6152;48.728;9.256;2022-09-03T18:30:06;2.40;;;1.30;;
12177;SDS011;6152;48.728;9.256;2022-09-03T18:32:52;2.97;;;1.55;;
12177;SDS011;6152;48.728;9.256;2022-09-03T18:35:37;1.45;;;1.35;;
12177;SDS011;6152;48.728;9.256;2022-09-03T18:38:27;1.75;;;1.30;;
12177;SDS011;6152;48.728;9.256;2022-09-03T18:47:55;2.25;;;1.70;;
12177;SDS011;6152;48.728;9.256;2022-09-03T18:50:57;1.58;;;1.45;;
12177;SDS011;6152;48.728;9.256;2022-09-03T18:53:56;2.17;;;1.83;;
12177;SDS011;6152;48.728;9.256;2022-09-03T18:57:13;3.13;;;2.58;;
12177;SDS011;6152;48.728;9.256;2022-09-03T19:00:07;2.28;;;1.92;;
12177;SDS011;6152;48.728;9.256;2022-09-03T19:11:44;1.73;;;1.63;;
12177;SDS011;6152;48.728;9.256;2022-09-03T19:20:35;2.08;;;1.73;;
12177;SDS011;6152;48.728;9.256;2022-09-03T19:23:23;1.67;;;1.58;;
12177;SDS011;6152;48.728;9.256;2022-09-03T19:26:19;1.60;;;1.48;;
12177;SDS011;6152;48.728;9.256;2022-09-03T19:29:18;1.60;;;1.50;;
12177;SDS011;6152;48.728;9.256;2022-09-03T19:32:32;2.10;;;1.63;;
12177;SDS011;6152;48.728;9.256;2022-09-03T19:35:36;1.73;;;1.52;;
12177;SDS011;6152;48.728;9.256;2022-09-03T19:38:48;3.72;;;2.05;;
12177;SDS011;6152;48.728;9.256;2022-09-03T19:41:51;2.50;;;1.88;;
12177;SDS011;6152;48.728;9.256;2022-09-03T19:51:06;2.05;;;1.75;;
12177;SDS011;6152;48.728;9.256;2022-09-03T19:53:57;1.83;;;1.70;;
12177;SDS011;6152;48.728;9.256;2022-09-03T19:56:45;3.13;;;2.08;;
12177;SDS011;6152;48.728;9.256;2022-09-03T19:59:38;2.42;;;1.95;;
12177;SDS011;6152;48.728;9.256;2022-09-03T20:02:24;2.45;;;2.00;;
12177;SDS011;6152;48.728;9.256;2022-09-03T20:05:09;2.85;;;1.80;;
12177;SDS011;6152;48.728;9.256;2022-09-03T20:08:04;2.05;;;1.70;;
12177;SDS011;6152;48.728;9.256;2022-09-03T20:10:51;1.80;;;1.70;;
12177;SDS011;6152;48.728;9.256;2022-09-03T20:13:20;1.88;;;1.77;;
12177;SDS011;6152;48.728;9.256;2022-09-03T20:29:57;2.13;;;1.60;;
12177;SDS011;6152;48.728;9.256;2022-09-03T20:35:14;5.00;;;1.77;;
12177;SDS011;6152;48.728;9.256;2022-09-03T20:37:44;1.60;;;1.50;;
12177;SDS011;6152;48.728;9.256;2022-09-03T20:40:32;2.00;;;1.60;;
12177;SDS011;6152;48.728;9.256;2022-09-03T20:52:00;1.58;;;1.45;;
12177;SDS011;6152;48.728;9.256;2022-09-03T21:00:29;1.80;;;1.70;;
12177;SDS011;6152;48.728;9.256;2022-09-03T21:03:29;2.00;;;1.77;;
12177;SDS011;6152;48.728;9.256;2022-09-03T21:06:29;2.17;;;1.98;;
12177;SDS011;6152;48.728;9.256;2022-09-03T21:12:06;2.15;;;1.95;;
12177;SDS011;6152;48.728;9.256;2022-09-03T21:23:24;3.65;;;1.80;;
12177;SDS011;6152;48.728;9.256;2022-09-03T21:26:11;2.80;;;2.30;;
12177;SDS011;6152;48.728;9.256;2022-09-03T21:31:39;3.58;;;2.42;;
12177;SDS011;6152;48.728;9.256;2022-09-03T21:34:17;2.63;;;2.42;;
12177;SDS011;6152;48.728;9.256;2022-09-03T21:36:49;4.20;;;2.65;;
12177;SDS011;6152;48.728;9.256;2022-09-03T21:39:20;6.63;;;2.58;;
12177;SDS011;6152;48.728;9.256;2022-09-03T21:41:57;3.00;;;2.13;;
12177;SDS011;6152;48.728;9.256;2022-09-03T21:47:25;3.30;;;2.50;;
12177;SDS011;6152;48.728;9.256;2022-09-03T21:49:59;3.13;;;2.50;;
12177;SDS011;6152;48.728;9.256;2022-09-03T21:52:52;4.88;;;2.45;;